sensor_id;sensor_type;location;lat;lon;timestamp;pressure;altitude;pressure_sealevel;temperature;humidity
15314;BME280;7757;52.626;4.746;2023-04-27T00:00:16;101989.50;;;15.48;56.63
15314;BME280;7757;52.626;4.746;2023-04-27T00:03:02;101989.69;;;15.46;56.27
15314;BME280;7757;52.626;4.746;2023-04-27T00:05:50;101988.38;;;15.42;56.87
15314;BME280;7757;52.626;4.746;2023-04-27T00:08:35;101995.06;;;15.46;56.69
15314;BME280;7757;52.626;4.746;2023-04-27T00:11:21;101998.78;;;15.45;56.58
15314;BME280;7757;52.626;4.746;2023-04-27T00:14:06;101992.56;;;15.45;56.69
15314;BME280;7757;52.626;4.746;2023-04-27T00:16:51;101995.25;;;15.45;55.90
15314;BME280;7757;52.626;4.746;2023-04-27T00:19:37;101991.72;;;15.44;56.50
15314;BME280;7757;52.626;4.746;2023-04-27T00:22:26;101990.91;;;15.44;55.55
15314;BME280;7757;52.626;4.746;2023-04-27T00:25:12;101987.53;;;15.42;55.88
15314;BME280;7757;52.626;4.746;2023-04-27T00:27:57;101989.41;;;15.41;56.21
15314;BME280;7757;52.626;4.746;2023-04-27T00:30:43;101988.59;;;15.41;56.00
15314;BME280;7757;52.626;4.746;2023-04-27T00:33:29;101982.16;;;15.42;55.96
15314;BME280;7757;52.626;4.746;2023-04-27T00:36:14;101961.47;;;15.28;56.40
15314;BME280;7757;52.626;4.746;2023-04-27T00:39:01;101994.16;;;15.39;56.00
15314;BME280;7757;52.626;4.746;2023-04-27T00:41:47;101989.59;;;15.40;56.39
15314;BME280;7757;52.626;4.746;2023-04-27T00:44:32;101985.41;;;15.37;56.53
15314;BME280;7757;52.626;4.746;2023-04-27T00:47:17;101981.25;;;15.35;56.76
15314;BME280;7757;52.626;4.746;2023-04-27T00:50:03;101986.66;;;15.35;56.60
15314;BME280;7757;52.626;4.746;2023-04-27T00:52:51;101988.13;;;15.37;55.64
15314;BME280;7757;52.626;4.746;2023-04-27T00:55:39;101979.94;;;15.31;55.65
15314;BME280;7757;52.626;4.746;2023-04-27T00:58:24;101970.38;;;15.28;56.31
15314;BME280;7757;52.626;4.746;2023-04-27T01:01:10;101980.59;;;15.33;56.57
15314;BME280;7757;52.626;4.746;2023-04-27T01:03:55;101987.44;;;15.35;56.40
15314;BME280;7757;52.626;4.746;2023-04-27T01:06:40;101978.72;;;15.33;56.31
15314;BME280;7757;52.626;4.746;2023-04-27T01:09:26;101983.94;;;15.35;56.08
15314;BME280;7757;52.626;4.746;2023-04-27T01:12:13;101985.97;;;15.33;56.05
15314;BME280;7757;52.626;4.746;2023-04-27T01:15:01;101970.19;;;15.30;56.00
15314;BME280;7757;52.626;4.746;2023-04-27T01:17:46;101975.94;;;15.27;55.71
15314;BME280;7757;52.626;4.746;2023-04-27T01:20:32;101981.63;;;15.32;55.88
15314;BME280;7757;52.626;4.746;2023-04-27T01:23:20;101954.13;;;15.22;56.48
15314;BME280;7757;52.626;4.746;2023-04-27T01:26:06;101965.38;;;15.25;55.96
15314;BME280;7757;52.626;4.746;2023-04-27T01:28:51;101970.84;;;15.32;56.27
15314;BME280;7757;52.626;4.746;2023-04-27T01:31:37;101967.94;;;15.33;56.84
15314;BME280;7757;52.626;4.746;2023-04-27T01:34:23;101955.22;;;15.27;55.76
15314;BME280;7757;52.626;4.746;2023-04-27T01:37:08;101958.59;;;15.29;55.88
15314;BME280;7757;52.626;4.746;2023-04-27T01:39:55;101955.06;;;15.29;55.96
15314;BME280;7757;52.626;4.746;2023-04-27T01:42:40;101944.44;;;15.27;57.17
15314;BME280;7757;52.626;4.746;2023-04-27T01:45:26;101925.25;;;15.16;56.37
15314;BME280;7757;52.626;4.746;2023-04-27T01:48:11;101919.84;;;15.16;56.57
15314;BME280;7757;52.626;4.746;2023-04-27T01:50:58;101930.34;;;15.25;56.29
15314;BME280;7757;52.626;4.746;2023-04-27T01:53:43;101937.56;;;15.25;56.04
15314;BME280;7757;52.626;4.746;2023-04-27T01:56:30;101940.28;;;15.25;57.08
15314;BME280;7757;52.626;4.746;2023-04-27T01:59:15;101930.50;;;15.24;56.06
15314;BME280;7757;52.626;4.746;2023-04-27T02:02:01;101932.56;;;15.22;56.20
15314;BME280;7757;52.626;4.746;2023-04-27T02:04:46;101936.09;;;15.22;56.93
15314;BME280;7757;52.626;4.746;2023-04-27T02:07:31;101928.84;;;15.23;56.30
15314;BME280;7757;52.626;4.746;2023-04-27T02:10:17;101923.56;;;15.15;56.21
15314;BME280;7757;52.626;4.746;2023-04-27T02:13:06;101937.13;;;15.21;56.63
15314;BME280;7757;52.626;4.746;2023-04-27T02:15:52;101926.06;;;15.16;56.37
15314;BME280;7757;52.626;4.746;2023-04-27T02:18:38;101937.31;;;15.20;56.79
15314;BME280;7757;52.626;4.746;2023-04-27T02:21:24;101934.63;;;15.20;55.97
15314;BME280;7757;52.626;4.746;2023-04-27T02:24:11;101937.31;;;15.20;56.74
15314;BME280;7757;52.626;4.746;2023-04-27T02:26:57;101928.31;;;15.13;56.46
15314;BME280;7757;52.626;4.746;2023-04-27T02:29:43;101933.16;;;15.17;56.73
15314;BME280;7757;52.626;4.746;2023-04-27T02:32:29;101926.72;;;15.18;56.32
15314;BME280;7757;52.626;4.746;2023-04-27T02:35:14;101927.94;;;15.16;56.97
15314;BME280;7757;52.626;4.746;2023-04-27T02:38:01;101925.63;;;15.13;56.58
15314;BME280;7757;52.626;4.746;2023-04-27T02:40:52;101923.94;;;15.12;56.68
15314;BME280;7757;52.626;4.746;2023-04-27T02:43:37;101920.59;;;15.09;56.45
15314;BME280;7757;52.626;4.746;2023-04-27T02:46:24;101933.53;;;15.14;56.74
15314;BME280;7757;52.626;4.746;2023-04-27T02:49:10;101941.59;;;15.14;56.21
15314;BME280;7757;52.626;4.746;2023-04-27T02:51:55;101938.25;;;15.12;56.61
15314;BME280;7757;52.626;4.746;2023-04-27T02:54:41;101939.09;;;15.13;56.73
15314;BME280;7757;52.626;4.746;2023-04-27T02:57:26;101940.31;;;15.10;57.12
15314;BME280;7757;52.626;4.746;2023-04-27T03:00:12;101946.53;;;15.11;56.04
15314;BME280;7757;52.626;4.746;2023-04-27T03:02:59;101939.28;;;15.11;55.96
15314;BME280;7757;52.626;4.746;2023-04-27T03:05:44;101943.84;;;15.11;56.69
15314;BME280;7757;52.626;4.746;2023-04-27T03:08:29;101938.44;;;15.11;56.17
15314;BME280;7757;52.626;4.746;2023-04-27T03:11:15;101946.69;;;15.09;56.46
15314;BME280;7757;52.626;4.746;2023-04-27T03:14:00;101937.34;;;15.05;56.45
15314;BME280;7757;52.626;4.746;2023-04-27T03:16:46;101939.66;;;15.08;56.44
15314;BME280;7757;52.626;4.746;2023-04-27T03:19:32;101942.75;;;15.05;56.83
15314;BME280;7757;52.626;4.746;2023-04-27T03:22:18;101947.53;;;15.09;56.49
15314;BME280;7757;52.626;4.746;2023-04-27T03:25:04;101924.44;;;15.00;56.52
15314;BME280;7757;52.626;4.746;2023-04-27T03:27:49;101935.50;;;15.05;56.13
15314;BME280;7757;52.626;4.746;2023-04-27T03:30:37;101936.31;;;15.06;55.96
15314;BME280;7757;52.626;4.746;2023-04-27T03:33:22;101940.69;;;15.07;56.04
15314;BME280;7757;52.626;4.746;2023-04-27T03:36:11;101931.28;;;15.03;56.42
15314;BME280;7757;52.626;4.746;2023-04-27T03:38:56;101931.13;;;15.04;56.09
15314;BME280;7757;52.626;4.746;2023-04-27T03:41:42;101937.34;;;15.05;56.86
15314;BME280;7757;52.626;4.746;2023-04-27T03:44:28;101937.91;;;15.00;56.01
15314;BME280;7757;52.626;4.746;2023-04-27T03:47:14;101934.72;;;14.97;56.16
15314;BME280;7757;52.626;4.746;2023-04-27T03:49:59;101934.94;;;14.95;55.98
15314;BME280;7757;52.626;4.746;2023-04-27T03:52:46;101944.97;;;15.01;56.59
15314;BME280;7757;52.626;4.746;2023-04-27T03:55:32;101932.34;;;15.02;57.13
15314;BME280;7757;52.626;4.746;2023-04-27T03:58:17;101922.47;;;14.94;56.70
15314;BME280;7757;52.626;4.746;2023-04-27T04:01:03;101939.56;;;15.01;56.69
15314;BME280;7757;52.626;4.746;2023-04-27T04:03:49;101939.09;;;14.98;56.44
15314;BME280;7757;52.626;4.746;2023-04-27T04:06:34;101951.19;;;15.02;56.28
15314;BME280;7757;52.626;4.746;2023-04-27T04:09:21;101935.09;;;14.94;56.80
15314;BME280;7757;52.626;4.746;2023-04-27T04:12:06;101940.59;;;15.00;57.12
15314;BME280;7757;52.626;4.746;2023-04-27T04:14:52;101944.50;;;14.98;56.33
15314;BME280;7757;52.626;4.746;2023-04-27T04:17:37;101932.88;;;14.97;56.09
15314;BME280;7757;52.626;4.746;2023-04-27T04:20:23;101944.31;;;14.99;56.22
15314;BME280;7757;52.626;4.746;2023-04-27T04:23:08;101950.91;;;14.97;56.37
15314;BME280;7757;52.626;4.746;2023-04-27T04:25:56;101954.91;;;15.01;55.99
15314;BME280;7757;52.626;4.746;2023-04-27T04:28:41;101958.16;;;14.96;56.41
15314;BME280;7757;52.626;4.746;2023-04-27T04:31:27;101956.59;;;15.02;56.16
15314;BME280;7757;52.626;4.746;2023-04-27T04:34:12;101959.28;;;15.02;56.86
15314;BME280;7757;52.626;4.746;2023-04-27T04:36:58;101962.50;;;14.97;56.63
15314;BME280;7757;52.626;4.746;2023-04-27T04:39:44;101955.47;;;14.96;56.58
15314;BME280;7757;52.626;4.746;2023-04-27T04:42:30;101960.50;;;14.99;57.16
15314;BME280;7757;52.626;4.746;2023-04-27T04:45:16;101966.16;;;15.04;56.71
15314;BME280;7757;52.626;4.746;2023-04-27T04:48:02;101961.75;;;15.03;56.64
15314;BME280;7757;52.626;4.746;2023-04-27T04:50:47;101975.91;;;15.05;56.36
15314;BME280;7757;52.626;4.746;2023-04-27T04:53:32;101965.13;;;15.05;56.49
15314;BME280;7757;52.626;4.746;2023-04-27T04:56:18;101969.31;;;15.08;55.82
15314;BME280;7757;52.626;4.746;2023-04-27T04:59:05;101964.28;;;15.05;55.99
15314;BME280;7757;52.626;4.746;2023-04-27T05:01:50;101955.00;;;15.07;56.73
15314;BME280;7757;52.626;4.746;2023-04-27T05:04:38;101959.16;;;15.10;56.69
15314;BME280;7757;52.626;4.746;2023-04-27T05:07:23;101965.47;;;15.17;55.50
15314;BME280;7757;52.626;4.746;2023-04-27T05:10:09;101958.88;;;15.20;55.92
15314;BME280;7757;52.626;4.746;2023-04-27T05:12:54;101954.72;;;15.17;55.45
15314;BME280;7757;52.626;4.746;2023-04-27T05:15:41;101963.56;;;15.32;55.44
15314;BME280;7757;52.626;4.746;2023-04-27T05:18:26;101967.78;;;15.35;55.89
15314;BME280;7757;52.626;4.746;2023-04-27T05:21:15;101973.81;;;15.37;56.07
15314;BME280;7757;52.626;4.746;2023-04-27T05:24:03;101978.34;;;15.51;55.02
15314;BME280;7757;52.626;4.746;2023-04-27T05:26:48;101976.09;;;15.54;55.15
15314;BME280;7757;52.626;4.746;2023-04-27T05:29:34;101991.16;;;15.63;55.18
15314;BME280;7757;52.626;4.746;2023-04-27T05:32:21;101971.69;;;15.68;54.87
15314;BME280;7757;52.626;4.746;2023-04-27T05:35:06;101978.91;;;15.82;54.63
15314;BME280;7757;52.626;4.746;2023-04-27T05:37:52;101980.88;;;15.95;54.83
15314;BME280;7757;52.626;4.746;2023-04-27T05:40:38;101979.09;;;16.02;53.91
15314;BME280;7757;52.626;4.746;2023-04-27T05:43:24;101970.06;;;16.16;53.66
15314;BME280;7757;52.626;4.746;2023-04-27T05:46:12;101986.03;;;16.39;52.75
15314;BME280;7757;52.626;4.746;2023-04-27T05:48:58;101985.00;;;16.61;53.13
15314;BME280;7757;52.626;4.746;2023-04-27T05:51:44;101983.66;;;16.78;52.41
15314;BME280;7757;52.626;4.746;2023-04-27T05:54:30;101980.47;;;17.02;51.77
15314;BME280;7757;52.626;4.746;2023-04-27T05:57:15;101984.31;;;17.27;51.26
15314;BME280;7757;52.626;4.746;2023-04-27T06:00:01;101975.47;;;17.53;50.89
15314;BME280;7757;52.626;4.746;2023-04-27T06:02:50;101968.28;;;17.73;50.72
15314;BME280;7757;52.626;4.746;2023-04-27T06:05:37;101983.72;;;17.86;50.36
15314;BME280;7757;52.626;4.746;2023-04-27T06:08:22;101984.31;;;18.01;49.95
15314;BME280;7757;52.626;4.746;2023-04-27T06:11:08;101989.78;;;18.14;50.07
15314;BME280;7757;52.626;4.746;2023-04-27T06:13:53;101984.78;;;18.18;50.27
15314;BME280;7757;52.626;4.746;2023-04-27T06:16:39;101979.78;;;18.21;50.14
15314;BME280;7757;52.626;4.746;2023-04-27T06:19:24;101992.69;;;18.32;50.10
15314;BME280;7757;52.626;4.746;2023-04-27T06:22:12;101984.16;;;18.42;49.80
15314;BME280;7757;52.626;4.746;2023-04-27T06:24:57;101987.91;;;18.54;49.39
15314;BME280;7757;52.626;4.746;2023-04-27T06:27:42;101993.97;;;18.63;49.61
15314;BME280;7757;52.626;4.746;2023-04-27T06:30:28;101988.94;;;18.73;49.20
15314;BME280;7757;52.626;4.746;2023-04-27T06:33:13;101979.53;;;18.75;49.00
15314;BME280;7757;52.626;4.746;2023-04-27T06:35:59;101987.03;;;18.80;49.13
15314;BME280;7757;52.626;4.746;2023-04-27T06:38:46;101995.38;;;18.85;49.05
15314;BME280;7757;52.626;4.746;2023-04-27T06:41:32;101989.53;;;18.88;48.89
15314;BME280;7757;52.626;4.746;2023-04-27T06:44:17;101993.06;;;18.95;48.98
15314;BME280;7757;52.626;4.746;2023-04-27T06:47:03;101988.03;;;18.99;49.16
15314;BME280;7757;52.626;4.746;2023-04-27T06:49:48;101973.00;;;19.03;48.55
15314;BME280;7757;52.626;4.746;2023-04-27T06:52:34;101984.25;;;19.06;48.94
15314;BME280;7757;52.626;4.746;2023-04-27T06:55:23;101980.28;;;19.09;48.75
15314;BME280;7757;52.626;4.746;2023-04-27T06:58:08;101975.69;;;19.16;48.71
15314;BME280;7757;52.626;4.746;2023-04-27T07:00:54;101982.72;;;19.23;48.12
15314;BME280;7757;52.626;4.746;2023-04-27T07:03:39;101989.41;;;19.27;48.62
15314;BME280;7757;52.626;4.746;2023-04-27T07:06:24;101985.84;;;19.33;48.29
15314;BME280;7757;52.626;4.746;2023-04-27T07:09:11;101986.66;;;19.40;48.23
15314;BME280;7757;52.626;4.746;2023-04-27T07:11:58;101995.00;;;19.45;48.18
15314;BME280;7757;52.626;4.746;2023-04-27T07:14:44;101985.94;;;19.58;47.98
15314;BME280;7757;52.626;4.746;2023-04-27T07:17:29;102000.75;;;19.62;47.70
15314;BME280;7757;52.626;4.746;2023-04-27T07:20:14;101996.91;;;19.76;47.58
15314;BME280;7757;52.626;4.746;2023-04-27T07:23:00;101993.97;;;19.78;47.73
15314;BME280;7757;52.626;4.746;2023-04-27T07:25:45;101990.13;;;19.92;47.12
15314;BME280;7757;52.626;4.746;2023-04-27T07:28:32;102005.13;;;19.94;46.86
15314;BME280;7757;52.626;4.746;2023-04-27T07:31:18;102005.16;;;19.88;47.95
15314;BME280;7757;52.626;4.746;2023-04-27T07:34:04;102005.41;;;19.86;47.56
15314;BME280;7757;52.626;4.746;2023-04-27T07:36:50;102005.59;;;19.85;47.26
15314;BME280;7757;52.626;4.746;2023-04-27T07:39:36;101998.91;;;19.87;47.33
15314;BME280;7757;52.626;4.746;2023-04-27T07:42:22;102006.41;;;19.92;47.53
15314;BME280;7757;52.626;4.746;2023-04-27T07:45:09;101995.50;;;19.98;46.98
15314;BME280;7757;52.626;4.746;2023-04-27T07:47:54;101995.06;;;20.01;47.14
15314;BME280;7757;52.626;4.746;2023-04-27T07:50:40;102002.50;;;20.13;47.38
15314;BME280;7757;52.626;4.746;2023-04-27T07:53:26;102000.94;;;20.23;47.07
15314;BME280;7757;52.626;4.746;2023-04-27T07:56:11;101993.28;;;20.14;47.21
15314;BME280;7757;52.626;4.746;2023-04-27T07:58:57;101994.56;;;20.11;46.86
15314;BME280;7757;52.626;4.746;2023-04-27T08:01:44;101994.28;;;20.26;47.21
15314;BME280;7757;52.626;4.746;2023-04-27T08:04:29;101992.09;;;20.34;47.01
15314;BME280;7757;52.626;4.746;2023-04-27T08:07:14;102001.88;;;20.42;46.46
15314;BME280;7757;52.626;4.746;2023-04-27T08:09:59;101994.31;;;20.44;46.68
15314;BME280;7757;52.626;4.746;2023-04-27T08:12:45;102002.59;;;20.55;46.26
15314;BME280;7757;52.626;4.746;2023-04-27T08:15:30;101993.38;;;20.56;46.30
15314;BME280;7757;52.626;4.746;2023-04-27T08:18:17;101996.19;;;20.68;46.48
15314;BME280;7757;52.626;4.746;2023-04-27T08:21:02;101987.53;;;20.78;46.60
15314;BME280;7757;52.626;4.746;2023-04-27T08:23:48;101990.00;;;20.79;45.88
15314;BME280;7757;52.626;4.746;2023-04-27T08:26:33;101994.78;;;20.84;46.07
15314;BME280;7757;52.626;4.746;2023-04-27T08:29:19;101993.13;;;20.83;46.03
15314;BME280;7757;52.626;4.746;2023-04-27T08:32:06;101995.63;;;20.84;46.16
15314;BME280;7757;52.626;4.746;2023-04-27T08:34:56;101990.03;;;20.97;46.27
15314;BME280;7757;52.626;4.746;2023-04-27T08:37:42;101989.81;;;20.99;45.90
15314;BME280;7757;52.626;4.746;2023-04-27T08:40:31;101992.34;;;20.94;46.44
15314;BME280;7757;52.626;4.746;2023-04-27T08:43:26;101991.69;;;20.98;46.26
15314;BME280;7757;52.626;4.746;2023-04-27T08:46:12;101977.41;;;20.85;46.03
15314;BME280;7757;52.626;4.746;2023-04-27T08:48:57;101995.59;;;21.02;46.04
15314;BME280;7757;52.626;4.746;2023-04-27T08:51:45;101977.25;;;20.98;46.36
15314;BME280;7757;52.626;4.746;2023-04-27T08:54:31;102000.19;;;21.08;45.76
15314;BME280;7757;52.626;4.746;2023-04-27T08:57:17;101989.47;;;21.13;46.00
15314;BME280;7757;52.626;4.746;2023-04-27T09:00:04;101989.22;;;21.15;45.49
15314;BME280;7757;52.626;4.746;2023-04-27T09:02:56;101976.66;;;21.14;46.08
15314;BME280;7757;52.626;4.746;2023-04-27T09:05:45;101980.59;;;21.18;45.72
15314;BME280;7757;52.626;4.746;2023-04-27T09:08:44;101984.75;;;21.21;45.88
15314;BME280;7757;52.626;4.746;2023-04-27T09:11:31;101983.91;;;21.20;45.61
15314;BME280;7757;52.626;4.746;2023-04-27T09:14:19;101966.03;;;21.12;45.94
15314;BME280;7757;52.626;4.746;2023-04-27T09:17:08;101980.22;;;21.14;45.89
15314;BME280;7757;52.626;4.746;2023-04-27T09:20:03;101981.75;;;21.10;45.88
15314;BME280;7757;52.626;4.746;2023-04-27T09:22:52;101978.41;;;21.08;45.82
15314;BME280;7757;52.626;4.746;2023-04-27T09:25:42;101979.53;;;21.01;45.76
15314;BME280;7757;52.626;4.746;2023-04-27T09:28:37;101976.03;;;20.94;46.29
15314;BME280;7757;52.626;4.746;2023-04-27T09:31:35;101960.63;;;20.88;46.48
15314;BME280;7757;52.626;4.746;2023-04-27T09:34:25;101936.69;;;20.78;46.26
15314;BME280;7757;52.626;4.746;2023-04-27T09:37:11;101967.03;;;20.93;46.69
15314;BME280;7757;52.626;4.746;2023-04-27T09:39:57;101972.19;;;20.83;46.84
15314;BME280;7757;52.626;4.746;2023-04-27T09:42:45;101957.22;;;20.74;46.60
15314;BME280;7757;52.626;4.746;2023-04-27T09:45:32;101954.66;;;20.79;46.50
15314;BME280;7757;52.626;4.746;2023-04-27T09:48:20;101971.06;;;20.91;46.02
15314;BME280;7757;52.626;4.746;2023-04-27T09:51:09;101970.00;;;20.92;46.72
15314;BME280;7757;52.626;4.746;2023-04-27T09:53:57;101971.06;;;20.91;46.76
15314;BME280;7757;52.626;4.746;2023-04-27T09:56:54;101945.91;;;20.77;46.83
15314;BME280;7757;52.626;4.746;2023-04-27T10:00:00;101976.94;;;20.88;46.85
15314;BME280;7757;52.626;4.746;2023-04-27T10:03:04;101940.59;;;20.64;46.51
15314;BME280;7757;52.626;4.746;2023-04-27T10:09:45;101966.69;;;20.72;47.11
15314;BME280;7757;52.626;4.746;2023-04-27T10:12:40;101972.31;;;20.70;47.25
15314;BME280;7757;52.626;4.746;2023-04-27T10:15:30;101967.78;;;20.64;47.09
15314;BME280;7757;52.626;4.746;2023-04-27T10:18:29;101931.66;;;20.39;47.27
15314;BME280;7757;52.626;4.746;2023-04-27T10:21:15;101957.81;;;20.58;47.21
15314;BME280;7757;52.626;4.746;2023-04-27T10:24:07;101973.06;;;20.59;47.20
15314;BME280;7757;52.626;4.746;2023-04-27T10:27:00;101984.09;;;20.64;47.58
15314;BME280;7757;52.626;4.746;2023-04-27T10:29:52;101990.38;;;20.65;47.26
15314;BME280;7757;52.626;4.746;2023-04-27T10:32:51;101984.34;;;20.63;47.76
15314;BME280;7757;52.626;4.746;2023-04-27T10:35:39;101985.63;;;20.60;47.59
15314;BME280;7757;52.626;4.746;2023-04-27T10:38:38;101978.75;;;20.57;47.87
15314;BME280;7757;52.626;4.746;2023-04-27T10:41:33;101971.25;;;20.53;47.84
15314;BME280;7757;52.626;4.746;2023-04-27T10:44:19;101973.13;;;20.52;47.90
15314;BME280;7757;52.626;4.746;2023-04-27T10:47:14;101971.69;;;20.50;47.84
15314;BME280;7757;52.626;4.746;2023-04-27T10:50:02;101960.22;;;20.48;47.63
15314;BME280;7757;52.626;4.746;2023-04-27T10:52:49;101954.19;;;20.46;48.18
15314;BME280;7757;52.626;4.746;2023-04-27T10:55:40;101956.06;;;20.45;48.23
15314;BME280;7757;52.626;4.746;2023-04-27T10:58:30;101951.69;;;20.44;47.75
15314;BME280;7757;52.626;4.746;2023-04-27T11:01:28;101957.34;;;20.43;47.89
15314;BME280;7757;52.626;4.746;2023-04-27T11:04:14;101951.53;;;20.39;48.13
15314;BME280;7757;52.626;4.746;2023-04-27T11:07:22;101943.81;;;20.36;47.99
15314;BME280;7757;52.626;4.746;2023-04-27T11:10:09;101904.31;;;20.09;48.21
15314;BME280;7757;52.626;4.746;2023-04-27T11:12:55;101912.88;;;20.13;48.36
15314;BME280;7757;52.626;4.746;2023-04-27T11:15:46;101945.91;;;20.34;48.23
15314;BME280;7757;52.626;4.746;2023-04-27T11:18:36;101945.09;;;20.34;48.28
15314;BME280;7757;52.626;4.746;2023-04-27T11:21:23;101945.56;;;20.31;48.54
15314;BME280;7757;52.626;4.746;2023-04-27T11:24:10;101952.19;;;20.35;48.28
15314;BME280;7757;52.626;4.746;2023-04-27T11:26:56;101922.16;;;20.23;48.57
15314;BME280;7757;52.626;4.746;2023-04-27T11:29:41;101949.47;;;20.35;48.14
15314;BME280;7757;52.626;4.746;2023-04-27T11:32:30;101940.72;;;20.33;48.35
15314;BME280;7757;52.626;4.746;2023-04-27T11:35:18;101945.47;;;20.37;48.61
15314;BME280;7757;52.626;4.746;2023-04-27T11:38:14;101932.28;;;20.41;47.99
15314;BME280;7757;52.626;4.746;2023-04-27T11:41:06;101902.06;;;20.31;48.42
15314;BME280;7757;52.626;4.746;2023-04-27T11:43:54;101925.03;;;20.53;47.90
15314;BME280;7757;52.626;4.746;2023-04-27T11:46:45;101931.53;;;20.52;48.09
15314;BME280;7757;52.626;4.746;2023-04-27T11:49:32;101926.31;;;20.50;48.20
15314;BME280;7757;52.626;4.746;2023-04-27T11:52:20;101941.78;;;20.50;48.35
15314;BME280;7757;52.626;4.746;2023-04-27T11:55:07;101928.00;;;20.51;48.23
15314;BME280;7757;52.626;4.746;2023-04-27T11:58:00;101928.34;;;20.55;48.19
15314;BME280;7757;52.626;4.746;2023-04-27T12:00:51;101926.47;;;20.55;48.61
15314;BME280;7757;52.626;4.746;2023-04-27T12:03:36;101887.34;;;20.38;48.81
15314;BME280;7757;52.626;4.746;2023-04-27T12:06:24;101917.34;;;20.50;48.42
15314;BME280;7757;52.626;4.746;2023-04-27T12:09:11;101915.31;;;20.45;48.66
15314;BME280;7757;52.626;4.746;2023-04-27T12:11:57;101918.16;;;20.50;48.34
15314;BME280;7757;52.626;4.746;2023-04-27T12:14:45;101920.88;;;20.50;48.60
15314;BME280;7757;52.626;4.746;2023-04-27T12:17:30;101916.50;;;20.49;48.90
15314;BME280;7757;52.626;4.746;2023-04-27T12:20:19;101882.06;;;20.25;49.06
15314;BME280;7757;52.626;4.746;2023-04-27T12:23:05;101904.50;;;20.39;49.03
15314;BME280;7757;52.626;4.746;2023-04-27T12:25:50;101911.38;;;20.41;48.78
15314;BME280;7757;52.626;4.746;2023-04-27T12:28:36;101912.84;;;20.37;49.39
15314;BME280;7757;52.626;4.746;2023-04-27T12:31:22;101901.63;;;20.34;49.15
15314;BME280;7757;52.626;4.746;2023-04-27T12:34:09;101901.00;;;20.32;49.03
15314;BME280;7757;52.626;4.746;2023-04-27T12:36:54;101867.34;;;20.08;49.28
15314;BME280;7757;52.626;4.746;2023-04-27T12:39:40;101911.66;;;20.33;49.40
15314;BME280;7757;52.626;4.746;2023-04-27T12:42:26;101903.97;;;20.30;49.50
15314;BME280;7757;52.626;4.746;2023-04-27T12:45:12;101910.22;;;20.31;49.02
15314;BME280;7757;52.626;4.746;2023-04-27T12:48:02;101867.53;;;20.13;49.79
15314;BME280;7757;52.626;4.746;2023-04-27T12:50:47;101860.03;;;20.09;49.53
15314;BME280;7757;52.626;4.746;2023-04-27T12:53:36;101901.63;;;20.34;49.52
15314;BME280;7757;52.626;4.746;2023-04-27T12:56:22;101894.53;;;20.33;49.50
15314;BME280;7757;52.626;4.746;2023-04-27T12:59:08;101896.41;;;20.32;49.32
15314;BME280;7757;52.626;4.746;2023-04-27T13:01:54;101891.81;;;20.33;49.30
15314;BME280;7757;52.626;4.746;2023-04-27T13:04:41;101886.56;;;20.31;49.14
15314;BME280;7757;52.626;4.746;2023-04-27T13:07:26;101889.53;;;20.30;49.89
15314;BME280;7757;52.626;4.746;2023-04-27T13:10:12;101884.13;;;20.23;49.65
15314;BME280;7757;52.626;4.746;2023-04-27T13:12:57;101891.88;;;20.26;49.95
15314;BME280;7757;52.626;4.746;2023-04-27T13:15:42;101871.81;;;20.21;49.38
15314;BME280;7757;52.626;4.746;2023-04-27T13:18:28;101888.94;;;20.28;49.59
15314;BME280;7757;52.626;4.746;2023-04-27T13:21:17;101887.03;;;20.28;49.82
15314;BME280;7757;52.626;4.746;2023-04-27T13:24:02;101885.59;;;20.26;49.63
15314;BME280;7757;52.626;4.746;2023-04-27T13:26:47;101886.13;;;20.34;49.46
15314;BME280;7757;52.626;4.746;2023-04-27T13:29:33;101883.81;;;20.38;50.13
15314;BME280;7757;52.626;4.746;2023-04-27T13:32:18;101877.31;;;20.39;49.77
15314;BME280;7757;52.626;4.746;2023-04-27T13:35:05;101874.00;;;20.37;49.48
15314;BME280;7757;52.626;4.746;2023-04-27T13:37:53;101877.09;;;20.40;49.81
15314;BME280;7757;52.626;4.746;2023-04-27T13:40:39;101874.59;;;20.39;50.29
15314;BME280;7757;52.626;4.746;2023-04-27T13:43:24;101879.59;;;20.42;49.37
15314;BME280;7757;52.626;4.746;2023-04-27T13:46:10;101873.09;;;20.43;49.64
15314;BME280;7757;52.626;4.746;2023-04-27T13:48:56;101870.38;;;20.43;49.08
15314;BME280;7757;52.626;4.746;2023-04-27T13:51:41;101857.91;;;20.35;49.39
15314;BME280;7757;52.626;4.746;2023-04-27T13:54:28;101866.00;;;20.42;49.65
15314;BME280;7757;52.626;4.746;2023-04-27T13:57:14;101859.97;;;20.40;49.71
15314;BME280;7757;52.626;4.746;2023-04-27T14:00:00;101861.41;;;20.42;49.49
15314;BME280;7757;52.626;4.746;2023-04-27T14:02:45;101867.03;;;20.41;49.56
15314;BME280;7757;52.626;4.746;2023-04-27T14:05:31;101861.63;;;20.41;49.75
15314;BME280;7757;52.626;4.746;2023-04-27T14:08:16;101845.75;;;20.38;49.57
15314;BME280;7757;52.626;4.746;2023-04-27T14:11:04;101841.63;;;20.35;49.79
15314;BME280;7757;52.626;4.746;2023-04-27T14:13:50;101843.66;;;20.40;49.47
15314;BME280;7757;52.626;4.746;2023-04-27T14:16:35;101821.94;;;20.40;50.19
15314;BME280;7757;52.626;4.746;2023-04-27T14:19:21;101817.53;;;20.39;49.69
15314;BME280;7757;52.626;4.746;2023-04-27T14:22:06;101819.56;;;20.43;50.20
15314;BME280;7757;52.626;4.746;2023-04-27T14:24:53;101821.69;;;20.41;49.90
15314;BME280;7757;52.626;4.746;2023-04-27T14:27:40;101813.53;;;20.41;49.56
15314;BME280;7757;52.626;4.746;2023-04-27T14:30:25;101822.28;;;20.43;49.76
15314;BME280;7757;52.626;4.746;2023-04-27T14:33:11;101820.84;;;20.41;50.22
15314;BME280;7757;52.626;4.746;2023-04-27T14:35:56;101812.56;;;20.36;49.97
15314;BME280;7757;52.626;4.746;2023-04-27T14:38:42;101806.28;;;20.35;50.00
15314;BME280;7757;52.626;4.746;2023-04-27T14:41:27;101812.56;;;20.36;49.97
15314;BME280;7757;52.626;4.746;2023-04-27T14:44:14;101798.59;;;20.32;49.90
15314;BME280;7757;52.626;4.746;2023-04-27T14:46:59;101797.69;;;20.38;49.93